createdAt,value
2023-02-22T00:00:42.646Z,16.25
2023-02-22T00:03:15.350Z,15.00
2023-02-22T00:05:46.894Z,15.57
2023-02-22T00:08:15.671Z,18.10
2023-02-22T00:10:43.479Z,19.05
2023-02-22T00:13:14.181Z,17.73
2023-02-22T00:15:42.322Z,20.92
2023-02-22T00:18:13.754Z,20.17
2023-02-22T00:20:42.262Z,21.52
2023-02-22T00:23:14.679Z,19.02
2023-02-22T00:25:42.510Z,17.90
2023-02-22T00:28:10.182Z,17.60
2023-02-22T00:30:37.998Z,14.35
2023-02-22T00:33:06.324Z,16.10
2023-02-22T00:35:35.336Z,17.48
2023-02-22T00:38:04.216Z,14.05
2023-02-22T00:40:33.386Z,16.67
2023-02-22T00:43:02.699Z,15.02
2023-02-22T00:45:32.260Z,18.60
2023-02-22T00:48:00.557Z,12.40
2023-02-22T00:50:30.974Z,10.38
2023-02-22T00:53:01.404Z,16.35
2023-02-22T00:55:31.643Z,11.10
2023-02-22T00:58:01.841Z,13.60
2023-02-22T01:00:31.597Z,9.52
2023-02-22T01:02:59.661Z,16.40
2023-02-22T01:05:29.017Z,15.10
2023-02-22T01:07:58.638Z,16.75
2023-02-22T01:10:29.787Z,16.25
2023-02-22T01:12:58.514Z,16.48
2023-02-22T01:15:30.713Z,16.85
2023-02-22T01:17:59.842Z,16.27
2023-02-22T01:20:29.303Z,16.90
2023-02-22T01:22:58.560Z,12.18
2023-02-22T01:25:29.733Z,15.95
2023-02-22T01:27:58.680Z,13.27
2023-02-22T01:30:29.349Z,12.85
2023-02-22T01:32:57.924Z,15.27
2023-02-22T01:35:29.614Z,15.25
2023-02-22T01:37:58.512Z,16.15
2023-02-22T01:40:30.151Z,13.05
2023-02-22T01:42:59.968Z,15.43
2023-02-22T01:45:45.447Z,17.23
2023-02-22T01:48:16.975Z,13.88
2023-02-22T01:50:48.592Z,10.88
2023-02-22T01:53:19.115Z,11.63
2023-02-22T01:55:48.978Z,8.45
2023-02-22T01:58:19.522Z,13.23
2023-02-22T02:00:47.296Z,9.75
2023-02-22T02:03:19.324Z,12.15
2023-02-22T02:05:47.332Z,11.35
2023-02-22T02:08:23.762Z,14.10
2023-02-22T02:10:54.404Z,12.98
2023-02-22T02:13:22.235Z,17.67
2023-02-22T02:15:52.738Z,12.50
2023-02-22T02:18:20.546Z,15.32
2023-02-22T02:21:01.772Z,9.35
2023-02-22T02:24:09.802Z,17.95
2023-02-22T02:27:00.250Z,12.13
2023-02-22T02:30:05.946Z,14.02
2023-02-22T02:32:46.105Z,14.48
2023-02-22T02:35:21.324Z,14.43
2023-02-22T02:37:55.613Z,16.05
2023-02-22T02:40:31.280Z,13.88
2023-02-22T02:43:05.918Z,14.88
2023-02-22T02:45:39.596Z,14.45
2023-02-22T02:48:12.183Z,16.70
2023-02-22T02:50:45.010Z,17.30
2023-02-22T02:53:17.077Z,15.85
2023-02-22T02:55:45.073Z,12.07
2023-02-22T02:58:19.821Z,16.35
2023-02-22T03:00:48.377Z,16.25
2023-02-22T03:03:45.967Z,18.00
2023-02-22T03:06:41.542Z,13.50
2023-02-22T03:09:15.286Z,11.80
2023-02-22T03:11:52.813Z,12.60
2023-02-22T03:14:27.533Z,14.43
2023-02-22T03:17:03.367Z,12.32
2023-02-22T03:19:36.761Z,18.08
2023-02-22T03:22:11.539Z,13.85
2023-02-22T03:24:52.772Z,14.77
2023-02-22T03:27:28.883Z,14.98
2023-02-22T03:30:01.346Z,12.15
2023-02-22T03:32:34.191Z,17.05
2023-02-22T03:35:08.764Z,13.10
2023-02-22T03:37:41.565Z,14.60
2023-02-22T03:40:14.761Z,14.52
2023-02-22T03:42:47.981Z,11.90
2023-02-22T03:45:18.889Z,12.60
2023-02-22T03:47:51.242Z,16.00
2023-02-22T03:50:25.197Z,15.23
2023-02-22T03:52:54.270Z,13.55
2023-02-22T03:55:23.610Z,13.23
2023-02-22T03:57:55.448Z,11.93
2023-02-22T04:00:26.112Z,15.77
2023-02-22T04:02:53.941Z,16.05
2023-02-22T04:05:24.779Z,11.63
2023-02-22T04:07:53.012Z,12.20
2023-02-22T04:10:21.017Z,12.40
2023-02-22T04:12:49.114Z,13.38
2023-02-22T04:15:21.822Z,11.88
2023-02-22T04:17:49.670Z,12.57
2023-02-22T04:20:19.752Z,17.42
2023-02-22T04:22:48.876Z,14.85
2023-02-22T04:25:16.640Z,13.68
2023-02-22T04:27:44.337Z,14.07
2023-02-22T04:30:13.089Z,13.70
2023-02-22T04:32:40.934Z,16.52
2023-02-22T04:35:09.333Z,14.32
2023-02-22T04:37:37.309Z,17.20
2023-02-22T04:40:08.063Z,17.45
2023-02-22T04:42:35.964Z,19.95
2023-02-22T04:45:04.165Z,16.85
2023-02-22T04:47:31.933Z,16.80
2023-02-22T04:50:00.274Z,15.75
2023-02-22T04:52:28.766Z,18.75
2023-02-22T04:54:56.462Z,18.98
2023-02-22T04:57:25.577Z,13.68
2023-02-22T04:59:53.309Z,17.33
2023-02-22T05:02:21.234Z,14.38
2023-02-22T05:04:49.241Z,19.60
2023-02-22T05:07:17.645Z,16.67
2023-02-22T05:09:45.483Z,18.20
2023-02-22T05:12:13.528Z,16.90
2023-02-22T05:14:42.728Z,13.57
2023-02-22T05:17:10.479Z,12.25
2023-02-22T05:19:38.330Z,14.65
2023-02-22T05:22:06.310Z,16.13
2023-02-22T05:24:34.996Z,13.43
2023-02-22T05:27:02.749Z,14.70
2023-02-22T05:29:30.621Z,12.15
2023-02-22T05:31:59.793Z,15.88
2023-02-22T05:34:27.545Z,22.75
2023-02-22T05:36:55.329Z,14.73
2023-02-22T05:39:23.265Z,13.88
2023-02-22T05:41:51.318Z,14.45
2023-02-22T05:44:19.053Z,16.08
2023-02-22T05:46:46.813Z,19.27
2023-02-22T05:49:16.191Z,13.35
2023-02-22T05:51:43.931Z,17.70
2023-02-22T05:54:11.708Z,18.02
2023-02-22T05:56:39.469Z,21.05
2023-02-22T05:59:07.232Z,28.05
2023-02-22T06:01:35.130Z,18.33
2023-02-22T06:04:03.073Z,18.45
2023-02-22T06:06:32.190Z,20.83
2023-02-22T06:08:59.921Z,22.15
2023-02-22T06:11:27.626Z,17.55
2023-02-22T06:13:55.372Z,19.17
2023-02-22T06:16:23.686Z,18.92
2023-02-22T06:18:51.516Z,20.23
2023-02-22T06:21:19.392Z,24.38
2023-02-22T06:23:48.662Z,18.73
2023-02-22T06:26:17.427Z,16.38
2023-02-22T06:28:45.879Z,18.55
2023-02-22T06:31:13.844Z,18.13
2023-02-22T06:33:41.647Z,15.98
2023-02-22T06:36:10.525Z,18.63
2023-02-22T06:38:38.264Z,24.10
2023-02-22T06:41:07.523Z,19.00
2023-02-22T06:43:35.311Z,17.77
2023-02-22T06:46:03.162Z,17.90
2023-02-22T06:48:30.874Z,26.83
2023-02-22T06:50:58.614Z,18.42
2023-02-22T06:53:26.283Z,15.30
2023-02-22T06:55:54.621Z,14.60
2023-02-22T06:58:23.637Z,20.17
2023-02-22T07:00:51.780Z,15.43
2023-02-22T07:03:19.625Z,12.93
2023-02-22T07:05:47.567Z,21.00
2023-02-22T07:08:15.311Z,17.70
2023-02-22T07:10:43.051Z,15.05
2023-02-22T07:13:10.808Z,16.67
2023-02-22T07:15:39.866Z,20.35
2023-02-22T07:18:07.830Z,18.75
2023-02-22T07:20:36.174Z,20.50
2023-02-22T07:23:04.199Z,17.15
2023-02-22T07:25:32.261Z,15.57
2023-02-22T07:28:00.402Z,13.50
2023-02-22T07:30:31.059Z,16.10
2023-02-22T07:33:02.380Z,15.68
2023-02-22T07:35:32.361Z,18.15
2023-02-22T07:38:00.507Z,17.85
2023-02-22T07:40:29.033Z,13.93
2023-02-22T07:42:59.340Z,18.85
2023-02-22T07:45:28.831Z,19.73
2023-02-22T07:47:57.372Z,20.00
2023-02-22T07:50:30.017Z,15.65
2023-02-22T07:52:59.360Z,18.20
2023-02-22T07:55:28.869Z,21.52
2023-02-22T07:57:58.625Z,15.60
2023-02-22T08:00:28.538Z,16.48
2023-02-22T08:02:56.900Z,17.73
2023-02-22T08:05:28.754Z,21.50
2023-02-22T08:07:56.728Z,16.13
2023-02-22T08:10:26.075Z,12.95
2023-02-22T08:12:54.766Z,15.25
2023-02-22T08:15:25.447Z,15.35
2023-02-22T08:17:54.309Z,12.57
2023-02-22T08:20:22.920Z,14.05
2023-02-22T08:22:52.599Z,13.25
2023-02-22T08:25:22.084Z,17.05
2023-02-22T08:27:50.821Z,13.73
2023-02-22T08:30:21.013Z,14.25
2023-02-22T08:32:49.311Z,15.35
2023-02-22T08:35:19.334Z,15.07
2023-02-22T08:37:48.654Z,14.15
2023-02-22T08:40:19.484Z,9.80
2023-02-22T08:42:47.269Z,10.73
2023-02-22T08:45:15.325Z,10.45
2023-02-22T08:47:43.361Z,10.88
2023-02-22T08:50:16.467Z,17.77
2023-02-22T08:52:44.274Z,9.93
2023-02-22T08:55:12.137Z,13.02
2023-02-22T08:57:41.190Z,11.40
2023-02-22T09:00:11.036Z,12.40
2023-02-22T09:02:40.699Z,12.43
2023-02-22T09:05:11.092Z,13.05
2023-02-22T09:07:44.287Z,12.38
2023-02-22T09:10:17.353Z,13.63
2023-02-22T09:12:48.583Z,14.25
2023-02-22T09:15:18.497Z,11.05
2023-02-22T09:17:48.136Z,14.57
2023-02-22T09:20:21.470Z,14.18
2023-02-22T09:22:52.455Z,13.73
2023-02-22T09:25:23.142Z,14.98
2023-02-22T09:27:55.288Z,14.82
2023-02-22T09:30:32.697Z,13.60
2023-02-22T09:33:04.771Z,12.65
2023-02-22T09:35:36.724Z,12.18
2023-02-22T09:38:08.280Z,15.82
2023-02-22T09:40:45.387Z,13.93
2023-02-22T09:43:29.223Z,12.90
2023-02-22T09:46:13.906Z,12.98
2023-02-22T09:48:58.951Z,12.05
2023-02-22T09:51:36.174Z,14.30
2023-02-22T09:54:15.020Z,11.85
2023-02-22T09:56:43.717Z,11.35
2023-02-22T09:59:18.759Z,13.48
2023-02-22T10:01:51.214Z,10.30
2023-02-22T10:04:23.542Z,18.38
2023-02-22T10:07:06.805Z,19.65
2023-02-22T10:09:42.465Z,12.35
2023-02-22T10:12:14.951Z,13.77
2023-02-22T10:15:07.050Z,14.00
2023-02-22T10:17:40.246Z,15.52
2023-02-22T10:20:28.506Z,13.07
2023-02-22T10:23:12.145Z,11.82
2023-02-22T10:25:41.500Z,15.93
2023-02-22T10:28:14.431Z,14.05
2023-02-22T10:30:54.601Z,14.07
2023-02-22T10:33:24.127Z,11.23
2023-02-22T10:35:53.549Z,47.38
2023-02-22T10:38:23.439Z,12.25
2023-02-22T10:40:55.914Z,13.45
2023-02-22T10:43:25.635Z,11.75
2023-02-22T10:45:58.104Z,12.93
2023-02-22T10:48:29.845Z,11.55
2023-02-22T10:51:01.937Z,12.50
2023-02-22T10:53:31.119Z,13.55
2023-02-22T10:56:12.672Z,13.82
2023-02-22T10:58:46.474Z,12.13
2023-02-22T11:01:27.519Z,11.18
2023-02-22T11:04:00.506Z,11.73
2023-02-22T11:06:28.529Z,13.88
2023-02-22T11:09:11.307Z,11.20
2023-02-22T11:11:41.244Z,11.30
2023-02-22T11:14:10.680Z,11.63
2023-02-22T11:16:42.945Z,13.70
2023-02-22T11:19:20.434Z,14.68
2023-02-22T11:21:51.382Z,13.18
2023-02-22T11:24:20.970Z,12.65
2023-02-22T11:26:52.573Z,13.50
2023-02-22T11:29:23.153Z,9.98
2023-02-22T11:31:52.886Z,13.95
2023-02-22T11:34:32.043Z,13.02
2023-02-22T11:37:17.544Z,10.80
2023-02-22T11:39:45.539Z,10.70
2023-02-22T11:42:23.513Z,14.55
2023-02-22T11:45:10.329Z,13.13
2023-02-22T11:47:52.436Z,12.38
2023-02-22T11:50:28.867Z,10.20
2023-02-22T11:53:18.361Z,14.32
2023-02-22T11:55:55.878Z,12.80
2023-02-22T11:58:33.609Z,11.95
2023-02-22T12:01:11.798Z,11.10
2023-02-22T12:03:58.414Z,11.38
2023-02-22T12:06:41.655Z,16.77
2023-02-22T12:09:16.031Z,11.70
2023-02-22T12:11:57.116Z,11.35
2023-02-22T12:14:32.019Z,11.30
2023-02-22T12:17:19.069Z,11.10
2023-02-22T12:19:51.307Z,13.77
2023-02-22T12:22:23.239Z,14.65
2023-02-22T12:25:08.544Z,17.35
2023-02-22T12:27:42.521Z,12.95
2023-02-22T12:30:16.272Z,14.93
2023-02-22T12:32:47.517Z,12.55
2023-02-22T12:35:22.724Z,12.32
2023-02-22T12:37:58.978Z,12.60
2023-02-22T12:40:35.393Z,11.98
2023-02-22T12:43:09.539Z,11.90
2023-02-22T12:45:43.892Z,12.90
2023-02-22T12:48:27.067Z,12.82
2023-02-22T12:51:00.806Z,13.07
2023-02-22T12:53:34.504Z,11.35
2023-02-22T12:56:16.969Z,11.85
2023-02-22T12:58:50.636Z,13.77
2023-02-22T13:01:22.261Z,11.20
2023-02-22T13:03:50.095Z,11.68
2023-02-22T13:06:33.121Z,14.30
2023-02-22T13:09:18.984Z,12.40
2023-02-22T13:11:53.526Z,12.25
2023-02-22T13:14:39.306Z,15.30
2023-02-22T13:17:14.810Z,14.80
2023-02-22T13:19:49.672Z,15.65
2023-02-22T13:22:25.686Z,15.73
2023-02-22T13:25:06.697Z,20.63
2023-02-22T13:27:41.025Z,15.70
2023-02-22T13:30:20.057Z,15.45
2023-02-22T13:33:19.597Z,18.25
2023-02-22T13:36:15.058Z,19.13
2023-02-22T13:39:03.484Z,22.48
2023-02-22T13:41:52.869Z,15.13
2023-02-22T13:44:53.007Z,15.02
2023-02-22T13:47:52.232Z,15.68
2023-02-22T13:51:07.118Z,17.40
2023-02-22T13:53:45.119Z,16.20
2023-02-22T13:56:15.855Z,13.38
2023-02-22T13:58:53.073Z,15.73
2023-02-22T14:01:40.820Z,11.88
2023-02-22T14:04:37.000Z,16.88
2023-02-22T14:07:33.683Z,16.20
2023-02-22T14:10:01.754Z,13.77
2023-02-22T14:12:50.552Z,14.68
2023-02-22T14:15:29.504Z,13.07
2023-02-22T14:18:00.852Z,14.18
2023-02-22T14:20:32.234Z,13.55
2023-02-22T14:23:30.807Z,13.77
2023-02-22T14:26:11.263Z,14.90
2023-02-22T14:28:46.193Z,15.45
2023-02-22T14:31:29.709Z,15.33
2023-02-22T14:34:09.574Z,16.73
2023-02-22T14:36:45.564Z,13.93
2023-02-22T14:39:31.659Z,19.10
2023-02-22T14:42:03.574Z,19.70
2023-02-22T14:44:37.732Z,17.20
2023-02-22T14:47:08.383Z,15.82
2023-02-22T14:49:41.387Z,12.88
2023-02-22T14:52:19.576Z,18.15
2023-02-22T14:55:04.566Z,16.38
2023-02-22T14:57:42.805Z,13.48
2023-02-22T15:00:22.687Z,13.68
2023-02-22T15:02:57.091Z,13.35
2023-02-22T15:05:27.532Z,16.38
2023-02-22T15:07:57.889Z,13.70
2023-02-22T15:10:29.610Z,16.45
2023-02-22T15:13:10.474Z,19.23
2023-02-22T15:15:43.731Z,15.60
2023-02-22T15:18:29.926Z,15.38
2023-02-22T15:21:00.210Z,14.70
2023-02-22T15:23:33.319Z,17.85
2023-02-22T15:26:01.306Z,14.13
2023-02-22T15:28:31.806Z,18.15
2023-02-22T15:31:25.931Z,16.40
2023-02-22T15:33:55.327Z,14.60
2023-02-22T15:36:27.302Z,16.10
2023-02-22T15:38:56.714Z,12.38
2023-02-22T15:41:28.766Z,15.75
2023-02-22T15:44:17.560Z,13.38
2023-02-22T15:46:54.342Z,17.27
2023-02-22T15:49:24.342Z,16.45
2023-02-22T15:52:04.974Z,18.15
2023-02-22T15:54:40.455Z,14.43
2023-02-22T15:57:08.297Z,19.30
2023-02-22T15:59:44.606Z,18.27
2023-02-22T16:02:39.054Z,16.38
2023-02-22T16:05:10.396Z,14.23
2023-02-22T16:07:45.093Z,14.93
2023-02-22T16:10:23.737Z,13.63
2023-02-22T16:13:03.466Z,16.13
2023-02-22T16:15:33.583Z,22.73
2023-02-22T16:18:26.488Z,25.67
2023-02-22T16:21:07.260Z,22.60
2023-02-22T16:23:46.101Z,19.40
2023-02-22T16:26:26.538Z,18.77
2023-02-22T16:28:56.812Z,22.67
2023-02-22T16:31:26.498Z,17.38
2023-02-22T16:33:56.324Z,17.38
2023-02-22T16:36:36.761Z,27.02
2023-02-22T16:39:07.361Z,21.27
2023-02-22T16:41:35.416Z,15.77
2023-02-22T16:44:03.610Z,20.85
2023-02-22T16:46:31.399Z,18.92
2023-02-22T16:49:03.271Z,22.52
2023-02-22T16:51:39.838Z,19.27
2023-02-22T16:54:12.511Z,17.38
2023-02-22T16:56:41.322Z,23.33
2023-02-22T16:59:14.019Z,19.48
2023-02-22T17:01:41.998Z,21.88
2023-02-22T17:04:15.828Z,21.77
2023-02-22T17:06:43.640Z,23.58
2023-02-22T17:09:11.503Z,29.30
2023-02-22T17:11:39.692Z,31.27
2023-02-22T17:14:07.587Z,17.88
2023-02-22T17:16:35.476Z,21.15
2023-02-22T17:19:04.996Z,17.65
2023-02-22T17:21:34.281Z,21.35
2023-02-22T17:24:02.162Z,16.30
2023-02-22T17:26:30.100Z,20.13
2023-02-22T17:28:57.893Z,17.27
2023-02-22T17:31:30.034Z,22.60
2023-02-22T17:34:02.060Z,19.13
2023-02-22T17:36:29.965Z,25.20
2023-02-22T17:38:59.879Z,26.73
2023-02-22T17:41:27.662Z,21.70
2023-02-22T17:43:58.029Z,21.55
2023-02-22T17:46:26.729Z,20.00
2023-02-22T17:48:54.962Z,18.83
2023-02-22T17:51:24.433Z,19.65
2023-02-22T17:53:52.622Z,17.17
2023-02-22T17:56:22.035Z,20.85
2023-02-22T17:58:53.490Z,25.35
2023-02-22T18:01:25.018Z,28.80
2023-02-22T18:03:53.109Z,19.33
2023-02-22T18:06:25.218Z,16.85
2023-02-22T18:08:56.208Z,19.23
2023-02-22T18:11:27.301Z,19.02
2023-02-22T18:13:56.015Z,16.75
2023-02-22T18:16:25.416Z,22.45
2023-02-22T18:18:53.555Z,19.48
2023-02-22T18:21:21.620Z,25.95
2023-02-22T18:23:49.638Z,20.73
2023-02-22T18:26:19.533Z,25.73
2023-02-22T18:28:49.472Z,21.42
2023-02-22T18:31:19.046Z,21.50
2023-02-22T18:33:49.361Z,19.38
2023-02-22T18:36:22.464Z,21.05
2023-02-22T18:38:51.445Z,24.85
2023-02-22T18:41:25.127Z,24.83
2023-02-22T18:43:57.526Z,23.20
2023-02-22T18:46:26.242Z,26.10
2023-02-22T18:48:55.539Z,25.45
2023-02-22T18:51:24.766Z,26.63
2023-02-22T18:53:56.815Z,28.08
2023-02-22T18:56:29.877Z,26.15
2023-02-22T18:59:00.706Z,20.98
2023-02-22T19:01:29.965Z,22.15
2023-02-22T19:03:59.226Z,22.38
2023-02-22T19:06:26.961Z,32.40
2023-02-22T19:08:55.304Z,19.33
2023-02-22T19:11:25.558Z,25.35
2023-02-22T19:13:54.909Z,23.45
2023-02-22T19:16:25.723Z,25.23
2023-02-22T19:18:56.804Z,22.98
2023-02-22T19:21:25.513Z,21.45
2023-02-22T19:23:53.510Z,20.45
2023-02-22T19:26:23.792Z,25.77
2023-02-22T19:28:52.815Z,30.23
2023-02-22T19:31:23.039Z,25.50
2023-02-22T19:33:53.422Z,28.52
2023-02-22T19:36:23.645Z,25.60
2023-02-22T19:38:51.492Z,27.40
2023-02-22T19:41:21.669Z,36.13
2023-02-22T19:43:51.421Z,30.30
2023-02-22T19:46:21.162Z,29.77
2023-02-22T19:48:50.859Z,24.20
2023-02-22T19:51:24.449Z,27.58
2023-02-22T19:53:53.564Z,24.25
2023-02-22T19:56:26.905Z,22.45
2023-02-22T19:58:56.815Z,28.73
2023-02-22T20:01:26.552Z,26.83
2023-02-22T20:03:56.026Z,25.17
2023-02-22T20:06:28.037Z,29.30
2023-02-22T20:08:56.923Z,26.95
2023-02-22T20:11:25.768Z,30.45
2023-02-22T20:13:55.377Z,28.90
2023-02-22T20:16:23.748Z,30.52
2023-02-22T20:18:51.778Z,24.23
2023-02-22T20:21:22.735Z,28.20
2023-02-22T20:23:56.884Z,32.08
2023-02-22T20:26:25.780Z,32.97
2023-02-22T20:28:54.184Z,30.75
2023-02-22T20:31:22.584Z,29.67
2023-02-22T20:33:54.932Z,26.92
2023-02-22T20:36:24.712Z,28.33
2023-02-22T20:38:55.290Z,29.85
2023-02-22T20:41:26.800Z,37.80
2023-02-22T20:43:56.272Z,31.30
2023-02-22T20:46:25.131Z,31.42
2023-02-22T20:48:56.529Z,34.97
2023-02-22T20:51:24.731Z,37.15
2023-02-22T20:53:54.514Z,40.67
2023-02-22T20:56:25.213Z,31.67
2023-02-22T20:58:53.227Z,34.47
2023-02-22T21:01:22.427Z,38.13
2023-02-22T21:03:51.320Z,29.85
2023-02-22T21:06:22.826Z,51.03
2023-02-22T21:08:53.519Z,34.55
2023-02-22T21:11:25.062Z,29.98
2023-02-22T21:13:53.511Z,30.67
2023-02-22T21:16:24.391Z,35.10
2023-02-22T21:18:53.020Z,34.25
2023-02-22T21:21:21.578Z,30.38
2023-02-22T21:23:50.919Z,33.13
2023-02-22T21:26:20.758Z,33.80
2023-02-22T21:28:51.747Z,28.98
2023-02-22T21:31:21.569Z,32.05
2023-02-22T21:33:50.527Z,30.48
2023-02-22T21:36:19.040Z,26.25
2023-02-22T21:38:53.408Z,33.40
2023-02-22T21:41:23.512Z,28.65
2023-02-22T21:43:52.996Z,31.80
2023-02-22T21:46:21.384Z,30.70
2023-02-22T21:48:49.498Z,33.40
2023-02-22T21:51:19.937Z,34.63
2023-02-22T21:53:49.260Z,30.73
2023-02-22T21:56:20.689Z,31.10
2023-02-22T21:58:51.227Z,30.83
2023-02-22T22:01:20.537Z,31.58
2023-02-22T22:03:48.510Z,33.08
2023-02-22T22:06:16.319Z,36.28
2023-02-22T22:08:46.057Z,38.45
2023-02-22T22:11:17.743Z,37.10
2023-02-22T22:13:46.101Z,44.20
2023-02-22T22:16:16.292Z,35.67
2023-02-22T22:18:46.724Z,34.65
2023-02-22T22:21:17.897Z,33.58
2023-02-22T22:23:47.377Z,38.80
2023-02-22T22:26:16.952Z,35.55
2023-02-22T22:28:47.163Z,37.47
2023-02-22T22:31:16.444Z,33.83
2023-02-22T22:33:46.197Z,35.67
2023-02-22T22:36:16.333Z,38.88
2023-02-22T22:38:46.902Z,44.90
2023-02-22T22:41:16.645Z,35.03
2023-02-22T22:43:46.073Z,33.60
2023-02-22T22:46:16.094Z,40.17
2023-02-22T22:48:46.909Z,41.25
2023-02-22T22:51:18.100Z,34.05
2023-02-22T22:53:47.914Z,33.42
2023-02-22T22:56:17.524Z,40.60
2023-02-22T22:58:49.063Z,33.80
2023-02-22T23:01:19.618Z,42.28
2023-02-22T23:03:54.824Z,34.17
2023-02-22T23:06:27.249Z,42.83
2023-02-22T23:08:59.908Z,40.05
2023-02-22T23:11:29.477Z,40.33
2023-02-22T23:13:57.609Z,39.55
2023-02-22T23:16:25.883Z,37.42
2023-02-22T23:18:55.133Z,42.55
2023-02-22T23:21:24.289Z,39.38
2023-02-22T23:23:55.422Z,35.88
2023-02-22T23:26:26.449Z,39.92
2023-02-22T23:28:59.068Z,41.47
2023-02-22T23:31:28.587Z,39.78
2023-02-22T23:33:59.452Z,38.15
2023-02-22T23:36:28.224Z,40.70
2023-02-22T23:38:55.997Z,37.53
2023-02-22T23:41:25.164Z,36.40
2023-02-22T23:43:53.778Z,40.10
2023-02-22T23:46:21.678Z,37.22
2023-02-22T23:48:52.014Z,44.38
2023-02-22T23:51:25.529Z,43.65
2023-02-22T23:53:55.611Z,49.75
2023-02-22T23:56:26.403Z,37.28
2023-02-22T23:58:57.043Z,38.67
